BGBWCYMH

Guest
Details From BGBW - Narsarsuaq
To CYMH - Marys Harbour
Flight Number -
Tags generated
Created
Modified
Stats Distance 817 nm / 1,512 km
Max Altitude 34,000 ft / 10,363 m
Waypoints 6
Social Downloads 0
Likes 0
Share VATSIM

Download

Looking for another format? Having issues loading an existing format? Contact us
Advertisement - Login to hide

Notes

Basic altitude profile: - Ascent Rate: 2500ft/min - Ascent Speed: 250kts - Cruise Altitude: 35000ft - Cruise Speed: 420kts - Descent Rate: 1500ft/min - Descent Speed: 250kts Options: - Use NATs: yes - Use PACOTS: yes - Use low airways: yes - Use high airways: yes

Route

BGBW OZN 5E20 LOACH CA CYMH

ID Type Via Altitude Latitude Longitude Leg Dist Tot Dist Heading (true) Name
O BGBW APT - 0 ft / 0 m 61.16052˚ -45.42598˚ - 0 nm - Narsarsuaq
OZN NDB - 33,500 ft / 10,211 m 60.05722˚ -43.15972˚ 94 nm 94 nm 134° / 136° PRINS CHRISTIAN SUND NDB
5850N FIX 5E20 (AWY-HI) 34,000 ft / 10,363 m 58.00000˚ -50.00000˚ 244 nm 338 nm 243° / 237° -
LOACH FIX 5E20 (AWY-HI) 34,000 ft / 10,363 m 55.51667˚ -57.01667˚ 274 nm 613 nm 240° / 234° -
CA NDB - 20,200 ft / 6,157 m 53.70906˚ -57.02100˚ 108 nm 722 nm 180° / 180° CARTWRIGHT NDB
O CYMH APT - 0 ft / 0 m 52.30225˚ -55.84542˚ 94 nm 816 nm 153° / 154° Marys Harbour

Altitude Profile

Advertisement - Login to hide

Weather


0- 5 10 15 20 25 30 35+ Temperature / ° C

Clouds and Precipitation
Forecast for 2017-12-11 18:00 UTC. Updated 31 minutes ago

Ground ~20,000 ft ~40,000 ft Winds

BGBW

Details ICAO BGBW (UAK)
Name Narsarsuaq
Region Greenland
Timezone America/Godthab (UTC-3.0)
Stats Elevation 112 ft / 34 m (AMSL)
Location 61.160516° -45.425976°
Runways 1
Magnetic Variation 22.908° W

METAR

BGBW 111650Z 06017G27KT 9999 FEW045 SCT100 BKN120 06/M11 Q0964

Decode

TAF

Not found

Departure Runways

ID Width Length Bearing (true) Bearing (mag) Surface Threshold Offset Overrun Length
07 148 ft / 45 m 5,921 ft / 1,805 m 40.57° 63.48° Concrete 0 ft / 0 m 0 ft / 0 m
25 148 ft / 45 m 5,921 ft / 1,805 m 220.58° 243.49° Concrete 0 ft / 0 m 279 ft / 85 m

CYMH

Details ICAO CYMH (YMH)
Name Marys Harbour
Region Canada
Timezone America/St_Johns (UTC-3.5)
Stats Elevation 38 ft / 12 m (AMSL)
Location 52.302250° -55.845423°
Runways 1
Magnetic Variation 20.305° W

METAR

CYMH 111700Z AUTO 25013G25KT 9SM CLR M07/M13 A2965 RMK SLP042

Decode

TAF

TAF TAF CYMH 111358Z 1114/1202 25015G25KT P6SM SKC BECMG 1114/1116 25020G35KT RMK FCST BASED ON AUTO OBS. NXT FCST BY 112000Z

Decode

Destination Runways

ID Width Length Bearing (true) Bearing (mag) Surface Threshold Offset Overrun Length
11 98 ft / 30 m 2,549 ft / 777 m 85.00° 105.31° Gravel 0 ft / 0 m 0 ft / 0 m
29 98 ft / 30 m 2,549 ft / 777 m 265.01° 285.32° Gravel 0 ft / 0 m 0 ft / 0 m

Popular Alternatives